sensor_id;sensor_type;location;lat;lon;timestamp;pressure;altitude;pressure_sealevel;temperature;humidity
40954;BME280;26686;50.130;8.710;2023-03-26T00:02:43;99497.22;;;9.56;72.34
40954;BME280;26686;50.130;8.710;2023-03-26T00:07:45;99494.72;;;9.54;72.51
40954;BME280;26686;50.130;8.710;2023-03-26T00:12:47;99500.97;;;9.44;73.35
40954;BME280;26686;50.130;8.710;2023-03-26T00:17:49;99498.50;;;9.52;73.09
40954;BME280;26686;50.130;8.710;2023-03-26T00:22:53;99496.97;;;9.59;72.77
40954;BME280;26686;50.130;8.710;2023-03-26T00:27:55;99502.25;;;9.49;73.00
40954;BME280;26686;50.130;8.710;2023-03-26T00:32:57;99494.72;;;9.54;72.60
40954;BME280;26686;50.130;8.710;2023-03-26T00:37:59;99501.75;;;9.65;72.03
40954;BME280;26686;50.130;8.710;2023-03-26T00:43:01;99503.97;;;9.60;72.43
40954;BME280;26686;50.130;8.710;2023-03-26T00:48:10;99493.47;;;9.59;72.79
40954;BME280;26686;50.130;8.710;2023-03-26T00:53:12;99509.81;;;9.54;73.28
40954;BME280;26686;50.130;8.710;2023-03-26T00:58:15;99504.78;;;9.51;73.37
40954;BME280;26686;50.130;8.710;2023-03-26T01:03:17;99498.22;;;9.55;73.55
40954;BME280;26686;50.130;8.710;2023-03-26T01:13:36;99476.31;;;9.32;74.61
40954;BME280;26686;50.130;8.710;2023-03-26T01:18:38;99464.31;;;9.28;74.47
40954;BME280;26686;50.130;8.710;2023-03-26T01:23:47;99464.56;;;9.25;74.85
40954;BME280;26686;50.130;8.710;2023-03-26T01:28:54;99452.81;;;9.17;74.92
40954;BME280;26686;50.130;8.710;2023-03-26T01:34:04;99451.28;;;9.25;74.14
40954;BME280;26686;50.130;8.710;2023-03-26T01:44:33;99440.38;;;9.18;74.32
40954;BME280;26686;50.130;8.710;2023-03-26T01:49:35;99439.81;;;9.14;74.26
40954;BME280;26686;50.130;8.710;2023-03-26T01:54:37;99433.97;;;9.20;74.25
40954;BME280;26686;50.130;8.710;2023-03-26T02:05:19;99429.47;;;9.21;74.80
40954;BME280;26686;50.130;8.710;2023-03-26T02:10:28;99425.19;;;9.30;74.54
40954;BME280;26686;50.130;8.710;2023-03-26T02:15:31;99413.97;;;9.26;74.94
40954;BME280;26686;50.130;8.710;2023-03-26T02:20:32;99401.38;;;9.18;75.35
40954;BME280;26686;50.130;8.710;2023-03-26T02:25:34;99395.09;;;9.19;75.37
40954;BME280;26686;50.130;8.710;2023-03-26T02:30:37;99390.34;;;9.23;75.22
40954;BME280;26686;50.130;8.710;2023-03-26T02:35:38;99386.28;;;9.19;75.69
40954;BME280;26686;50.130;8.710;2023-03-26T02:40:40;99374.94;;;9.17;75.87
40954;BME280;26686;50.130;8.710;2023-03-26T02:45:42;99359.88;;;9.17;75.81
40954;BME280;26686;50.130;8.710;2023-03-26T02:50:43;99368.13;;;9.24;75.40
40954;BME280;26686;50.130;8.710;2023-03-26T02:55:45;99357.09;;;9.29;74.96
40954;BME280;26686;50.130;8.710;2023-03-26T03:00:46;99358.50;;;9.33;75.16
40954;BME280;26686;50.130;8.710;2023-03-26T03:05:52;99355.44;;;9.28;75.43
40954;BME280;26686;50.130;8.710;2023-03-26T03:11:10;99341.88;;;9.31;75.43
40954;BME280;26686;50.130;8.710;2023-03-26T03:16:15;99355.16;;;9.31;75.21
40954;BME280;26686;50.130;8.710;2023-03-26T03:21:17;99342.16;;;9.28;75.41
40954;BME280;26686;50.130;8.710;2023-03-26T03:26:20;99341.72;;;9.23;75.63
40954;BME280;26686;50.130;8.710;2023-03-26T03:31:23;99333.47;;;9.26;76.10
40954;BME280;26686;50.130;8.710;2023-03-26T03:36:25;99322.97;;;9.24;75.90
40954;BME280;26686;50.130;8.710;2023-03-26T03:41:28;99307.75;;;9.16;76.68
40954;BME280;26686;50.130;8.710;2023-03-26T03:46:31;99307.34;;;9.31;76.17
40954;BME280;26686;50.130;8.710;2023-03-26T03:51:33;99299.66;;;9.28;76.20
40954;BME280;26686;50.130;8.710;2023-03-26T03:56:35;99297.00;;;9.28;77.03
40954;BME280;26686;50.130;8.710;2023-03-26T04:01:38;99277.13;;;9.32;76.90
40954;BME280;26686;50.130;8.710;2023-03-26T04:06:39;99275.88;;;9.36;77.53
40954;BME280;26686;50.130;8.710;2023-03-26T04:11:41;99258.69;;;9.40;77.58
40954;BME280;26686;50.130;8.710;2023-03-26T04:16:43;99257.31;;;9.36;78.08
40954;BME280;26686;50.130;8.710;2023-03-26T04:21:44;99267.91;;;9.36;78.27
40954;BME280;26686;50.130;8.710;2023-03-26T04:26:46;99262.34;;;9.39;78.80
40954;BME280;26686;50.130;8.710;2023-03-26T04:31:49;99246.66;;;9.26;79.68
40954;BME280;26686;50.130;8.710;2023-03-26T04:36:51;99248.06;;;9.30;79.94
40954;BME280;26686;50.130;8.710;2023-03-26T04:41:55;99236.91;;;9.27;80.15
40954;BME280;26686;50.130;8.710;2023-03-26T04:46:58;99214.78;;;9.26;79.58
40954;BME280;26686;50.130;8.710;2023-03-26T04:52:00;99206.44;;;9.31;79.23
40954;BME280;26686;50.130;8.710;2023-03-26T04:57:03;99192.31;;;9.30;79.21
40954;BME280;26686;50.130;8.710;2023-03-26T05:02:06;99187.13;;;9.29;79.34
40954;BME280;26686;50.130;8.710;2023-03-26T05:07:10;99194.53;;;9.35;79.09
40954;BME280;26686;50.130;8.710;2023-03-26T05:12:13;99184.19;;;9.32;79.08
40954;BME280;26686;50.130;8.710;2023-03-26T05:17:15;99168.56;;;9.19;79.37
40954;BME280;26686;50.130;8.710;2023-03-26T05:22:19;99155.53;;;9.26;79.48
40954;BME280;26686;50.130;8.710;2023-03-26T05:27:20;99142.69;;;9.31;79.11
40954;BME280;26686;50.130;8.710;2023-03-26T05:32:22;99127.59;;;9.31;79.04
40954;BME280;26686;50.130;8.710;2023-03-26T05:37:23;99106.31;;;9.41;78.86
40954;BME280;26686;50.130;8.710;2023-03-26T05:42:25;99107.84;;;9.53;78.17
40954;BME280;26686;50.130;8.710;2023-03-26T05:47:27;99111.84;;;9.58;78.39
40954;BME280;26686;50.130;8.710;2023-03-26T05:52:28;99100.94;;;9.61;78.46
40954;BME280;26686;50.130;8.710;2023-03-26T05:57:30;99092.28;;;9.59;78.00
40954;BME280;26686;50.130;8.710;2023-03-26T06:02:32;99092.81;;;9.62;78.21
40954;BME280;26686;50.130;8.710;2023-03-26T06:07:35;99080.25;;;9.64;77.82
40954;BME280;26686;50.130;8.710;2023-03-26T06:12:36;99098.09;;;9.72;78.05
40954;BME280;26686;50.130;8.710;2023-03-26T06:17:39;99082.00;;;9.73;77.33
40954;BME280;26686;50.130;8.710;2023-03-26T06:22:41;99069.69;;;9.72;77.53
40954;BME280;26686;50.130;8.710;2023-03-26T06:27:43;99065.03;;;9.84;76.89
40954;BME280;26686;50.130;8.710;2023-03-26T06:32:45;99044.03;;;9.91;76.99
40954;BME280;26686;50.130;8.710;2023-03-26T06:37:46;99036.13;;;9.99;76.71
40954;BME280;26686;50.130;8.710;2023-03-26T06:42:48;99025.75;;;10.06;76.04
40954;BME280;26686;50.130;8.710;2023-03-26T06:48:10;99030.47;;;10.12;75.68
40954;BME280;26686;50.130;8.710;2023-03-26T06:53:11;99014.19;;;10.15;76.18
40954;BME280;26686;50.130;8.710;2023-03-26T06:58:13;99014.06;;;10.17;75.93
40954;BME280;26686;50.130;8.710;2023-03-26T07:03:14;99015.56;;;10.19;75.74
40954;BME280;26686;50.130;8.710;2023-03-26T07:08:19;99017.22;;;10.20;75.35
40954;BME280;26686;50.130;8.710;2023-03-26T07:13:21;99002.28;;;10.19;74.67
40954;BME280;26686;50.130;8.710;2023-03-26T07:18:22;99010.94;;;10.21;74.93
40954;BME280;26686;50.130;8.710;2023-03-26T07:23:24;99002.13;;;10.21;75.47
40954;BME280;26686;50.130;8.710;2023-03-26T07:28:36;98993.28;;;10.20;74.81
40954;BME280;26686;50.130;8.710;2023-03-26T07:33:49;98991.19;;;10.24;75.84
40954;BME280;26686;50.130;8.710;2023-03-26T07:44:42;98971.69;;;10.33;76.92
40954;BME280;26686;50.130;8.710;2023-03-26T07:49:45;98957.38;;;10.34;77.94
40954;BME280;26686;50.130;8.710;2023-03-26T07:54:47;98958.50;;;10.32;79.14
40954;BME280;26686;50.130;8.710;2023-03-26T07:59:55;98949.50;;;10.33;80.80
40954;BME280;26686;50.130;8.710;2023-03-26T08:15:30;98921.88;;;10.25;83.20
40954;BME280;26686;50.130;8.710;2023-03-26T08:20:46;98919.59;;;10.31;84.36
40954;BME280;26686;50.130;8.710;2023-03-26T08:26:00;98922.56;;;10.27;83.32
40954;BME280;26686;50.130;8.710;2023-03-26T08:31:08;98919.75;;;10.29;83.82
40954;BME280;26686;50.130;8.710;2023-03-26T08:36:12;98914.94;;;10.33;84.72
40954;BME280;26686;50.130;8.710;2023-03-26T08:57:10;98910.53;;;10.23;84.97
40954;BME280;26686;50.130;8.710;2023-03-26T09:18:23;98880.25;;;10.16;88.05
40954;BME280;26686;50.130;8.710;2023-03-26T09:44:31;98861.06;;;10.04;86.83
40954;BME280;26686;50.130;8.710;2023-03-26T10:00:57;98832.63;;;10.05;82.44
40954;BME280;26686;50.130;8.710;2023-03-26T10:11:29;98844.28;;;10.30;82.95
40954;BME280;26686;50.130;8.710;2023-03-26T10:22:14;98836.72;;;10.17;83.34
40954;BME280;26686;50.130;8.710;2023-03-26T10:27:42;98824.00;;;10.29;83.17
40954;BME280;26686;50.130;8.710;2023-03-26T10:32:58;98817.44;;;10.41;81.50
40954;BME280;26686;50.130;8.710;2023-03-26T10:38:31;98808.81;;;10.82;80.02
40954;BME280;26686;50.130;8.710;2023-03-26T10:43:58;98803.47;;;11.25;77.82
40954;BME280;26686;50.130;8.710;2023-03-26T10:59:47;98793.97;;;11.22;78.01
40954;BME280;26686;50.130;8.710;2023-03-26T11:20:54;98765.69;;;11.87;73.10
40954;BME280;26686;50.130;8.710;2023-03-26T11:36:56;98767.97;;;11.00;78.37
40954;BME280;26686;50.130;8.710;2023-03-26T11:42:08;98760.59;;;10.85;78.00
40954;BME280;26686;50.130;8.710;2023-03-26T11:47:14;98762.78;;;10.98;79.96
40954;BME280;26686;50.130;8.710;2023-03-26T11:52:19;98753.03;;;11.23;81.39
40954;BME280;26686;50.130;8.710;2023-03-26T11:57:25;98748.41;;;11.50;76.98
40954;BME280;26686;50.130;8.710;2023-03-26T12:02:37;98743.22;;;11.81;75.93
40954;BME280;26686;50.130;8.710;2023-03-26T12:07:52;98743.38;;;11.96;75.51
40954;BME280;26686;50.130;8.710;2023-03-26T12:13:00;98726.72;;;11.94;76.60
40954;BME280;26686;50.130;8.710;2023-03-26T12:18:21;98725.53;;;11.72;76.21
40954;BME280;26686;50.130;8.710;2023-03-26T12:23:37;98720.06;;;11.65;77.29
40954;BME280;26686;50.130;8.710;2023-03-26T12:28:47;98714.03;;;12.05;76.42
40954;BME280;26686;50.130;8.710;2023-03-26T12:34:04;98714.34;;;12.89;72.20
40954;BME280;26686;50.130;8.710;2023-03-26T12:39:28;98703.00;;;12.87;70.88
40954;BME280;26686;50.130;8.710;2023-03-26T12:44:52;98705.94;;;14.74;65.43
40954;BME280;26686;50.130;8.710;2023-03-26T12:50:00;98697.06;;;14.59;64.41
40954;BME280;26686;50.130;8.710;2023-03-26T12:55:34;98686.22;;;13.86;68.29
40954;BME280;26686;50.130;8.710;2023-03-26T13:17:02;98667.97;;;20.39;44.72
40954;BME280;26686;50.130;8.710;2023-03-26T13:22:33;98669.97;;;16.95;54.14
40954;BME280;26686;50.130;8.710;2023-03-26T13:33:10;98644.25;;;19.03;50.71
40954;BME280;26686;50.130;8.710;2023-03-26T13:38:28;98623.88;;;19.14;48.96
40954;BME280;26686;50.130;8.710;2023-03-26T13:44:00;98631.69;;;17.66;51.46
40954;BME280;26686;50.130;8.710;2023-03-26T13:49:14;98629.44;;;16.35;56.21
40954;BME280;26686;50.130;8.710;2023-03-26T13:59:42;98627.47;;;15.45;54.93
40954;BME280;26686;50.130;8.710;2023-03-26T14:04:47;98645.94;;;14.69;58.06
40954;BME280;26686;50.130;8.710;2023-03-26T14:09:55;98628.25;;;14.23;60.01
40954;BME280;26686;50.130;8.710;2023-03-26T14:15:01;98622.66;;;14.69;59.80
40954;BME280;26686;50.130;8.710;2023-03-26T14:31:07;98610.00;;;14.84;57.43
40954;BME280;26686;50.130;8.710;2023-03-26T14:36:26;98607.97;;;14.65;57.94
40954;BME280;26686;50.130;8.710;2023-03-26T14:41:50;98601.41;;;14.31;56.43
40954;BME280;26686;50.130;8.710;2023-03-26T14:52:23;98583.75;;;14.37;55.95
40954;BME280;26686;50.130;8.710;2023-03-26T15:29:45;98547.22;;;13.92;53.19
40954;BME280;26686;50.130;8.710;2023-03-26T15:45:51;98592.41;;;13.42;52.35
40954;BME280;26686;50.130;8.710;2023-03-26T15:56:22;98673.28;;;12.90;54.07
40954;BME280;26686;50.130;8.710;2023-03-26T16:01:44;98698.25;;;11.37;59.83
40954;BME280;26686;50.130;8.710;2023-03-26T16:06:59;98707.06;;;10.96;66.95
40954;BME280;26686;50.130;8.710;2023-03-26T16:17:19;98701.09;;;10.52;71.05
40954;BME280;26686;50.130;8.710;2023-03-26T16:22:55;98683.19;;;10.70;71.60
40954;BME280;26686;50.130;8.710;2023-03-26T16:33:17;98699.91;;;11.13;73.19
40954;BME280;26686;50.130;8.710;2023-03-26T16:38:22;98711.59;;;11.29;71.96
40954;BME280;26686;50.130;8.710;2023-03-26T16:43:35;98712.06;;;11.16;69.53
40954;BME280;26686;50.130;8.710;2023-03-26T16:53:54;98709.88;;;11.03;69.76
40954;BME280;26686;50.130;8.710;2023-03-26T16:59:05;98713.66;;;10.76;71.50
40954;BME280;26686;50.130;8.710;2023-03-26T17:04:17;98711.63;;;10.61;72.16
40954;BME280;26686;50.130;8.710;2023-03-26T17:09:46;98711.31;;;10.65;72.89
40954;BME280;26686;50.130;8.710;2023-03-26T17:15:16;98719.13;;;10.66;73.48
40954;BME280;26686;50.130;8.710;2023-03-26T17:25:41;98722.28;;;10.61;74.01
40954;BME280;26686;50.130;8.710;2023-03-26T17:36:19;98734.56;;;10.63;72.84
40954;BME280;26686;50.130;8.710;2023-03-26T17:41:48;98737.91;;;10.65;72.57
40954;BME280;26686;50.130;8.710;2023-03-26T17:46:50;98738.50;;;10.42;73.12
40954;BME280;26686;50.130;8.710;2023-03-26T17:51:59;98743.50;;;10.45;72.58
40954;BME280;26686;50.130;8.710;2023-03-26T17:57:38;98743.50;;;10.53;73.17
40954;BME280;26686;50.130;8.710;2023-03-26T18:02:51;98754.38;;;10.60;72.42
40954;BME280;26686;50.130;8.710;2023-03-26T18:08:28;98767.78;;;10.50;73.26
40954;BME280;26686;50.130;8.710;2023-03-26T18:19:00;98785.91;;;10.55;77.33
40954;BME280;26686;50.130;8.710;2023-03-26T18:24:04;98784.13;;;10.55;77.25
40954;BME280;26686;50.130;8.710;2023-03-26T18:29:16;98786.44;;;10.32;78.66
40954;BME280;26686;50.130;8.710;2023-03-26T18:34:20;98782.25;;;10.30;81.29
40954;BME280;26686;50.130;8.710;2023-03-26T18:39:22;98788.56;;;10.47;79.22
40954;BME280;26686;50.130;8.710;2023-03-26T18:44:24;98783.41;;;10.45;79.82
40954;BME280;26686;50.130;8.710;2023-03-26T18:49:26;98783.25;;;10.47;79.13
40954;BME280;26686;50.130;8.710;2023-03-26T18:54:33;98789.38;;;10.47;80.80
40954;BME280;26686;50.130;8.710;2023-03-26T18:59:36;98790.03;;;10.49;79.53
40954;BME280;26686;50.130;8.710;2023-03-26T19:04:45;98791.00;;;10.40;78.53
40954;BME280;26686;50.130;8.710;2023-03-26T19:09:49;98795.66;;;10.38;79.63
40954;BME280;26686;50.130;8.710;2023-03-26T19:15:10;98801.47;;;10.41;78.16
40954;BME280;26686;50.130;8.710;2023-03-26T19:20:23;98800.97;;;10.38;78.02
40954;BME280;26686;50.130;8.710;2023-03-26T19:25:39;98800.97;;;10.38;78.48
40954;BME280;26686;50.130;8.710;2023-03-26T19:30:43;98804.63;;;10.37;77.79
40954;BME280;26686;50.130;8.710;2023-03-26T19:36:01;98798.97;;;10.40;77.95
40954;BME280;26686;50.130;8.710;2023-03-26T19:41:04;98803.53;;;10.30;76.29
40954;BME280;26686;50.130;8.710;2023-03-26T19:46:11;98811.38;;;10.31;75.95
40954;BME280;26686;50.130;8.710;2023-03-26T19:51:29;98805.84;;;10.24;76.30
40954;BME280;26686;50.130;8.710;2023-03-26T19:56:32;98803.34;;;10.23;76.22
40954;BME280;26686;50.130;8.710;2023-03-26T20:01:34;98816.13;;;10.19;77.49
40954;BME280;26686;50.130;8.710;2023-03-26T20:06:36;98824.41;;;10.16;77.04
40954;BME280;26686;50.130;8.710;2023-03-26T20:11:44;98837.44;;;10.01;78.77
40954;BME280;26686;50.130;8.710;2023-03-26T20:16:47;98842.81;;;10.09;79.00
40954;BME280;26686;50.130;8.710;2023-03-26T20:21:48;98845.31;;;10.11;77.87
40954;BME280;26686;50.130;8.710;2023-03-26T20:26:50;98852.19;;;9.96;79.91
40954;BME280;26686;50.130;8.710;2023-03-26T20:31:52;98857.25;;;10.07;78.99
40954;BME280;26686;50.130;8.710;2023-03-26T20:36:53;98868.97;;;9.78;79.75
40954;BME280;26686;50.130;8.710;2023-03-26T20:42:01;98881.44;;;9.96;78.00
40954;BME280;26686;50.130;8.710;2023-03-26T20:47:03;98880.56;;;9.95;76.69
40954;BME280;26686;50.130;8.710;2023-03-26T20:52:04;98887.66;;;9.86;76.35
40954;BME280;26686;50.130;8.710;2023-03-26T20:57:09;98893.66;;;9.70;76.78
40954;BME280;26686;50.130;8.710;2023-03-26T21:02:13;98899.25;;;9.49;76.37
40954;BME280;26686;50.130;8.710;2023-03-26T21:07:15;98905.19;;;9.61;76.70
40954;BME280;26686;50.130;8.710;2023-03-26T21:12:33;98941.25;;;9.64;75.45
40954;BME280;26686;50.130;8.710;2023-03-26T21:17:41;98941.81;;;9.58;75.44
40954;BME280;26686;50.130;8.710;2023-03-26T21:22:57;98958.06;;;9.54;74.28
40954;BME280;26686;50.130;8.710;2023-03-26T21:28:29;98971.56;;;9.43;74.61
40954;BME280;26686;50.130;8.710;2023-03-26T21:33:43;98974.94;;;9.35;75.25
40954;BME280;26686;50.130;8.710;2023-03-26T21:38:45;98978.69;;;9.05;75.68
40954;BME280;26686;50.130;8.710;2023-03-26T21:43:48;99001.81;;;9.23;75.72
40954;BME280;26686;50.130;8.710;2023-03-26T21:48:49;99005.75;;;9.18;75.70
40954;BME280;26686;50.130;8.710;2023-03-26T21:53:52;99013.03;;;9.16;75.24
40954;BME280;26686;50.130;8.710;2023-03-26T21:59:01;99025.78;;;9.03;74.33
40954;BME280;26686;50.130;8.710;2023-03-26T22:04:22;99035.81;;;9.09;73.19
40954;BME280;26686;50.130;8.710;2023-03-26T22:09:26;99060.56;;;9.00;73.05
40954;BME280;26686;50.130;8.710;2023-03-26T22:14:34;99080.97;;;8.90;72.75
40954;BME280;26686;50.130;8.710;2023-03-26T22:19:35;99096.91;;;8.90;72.93
40954;BME280;26686;50.130;8.710;2023-03-26T22:24:37;99102.22;;;8.70;73.87
40954;BME280;26686;50.130;8.710;2023-03-26T22:29:39;99115.66;;;8.78;73.42
40954;BME280;26686;50.130;8.710;2023-03-26T22:34:40;99120.38;;;8.65;72.02
40954;BME280;26686;50.130;8.710;2023-03-26T22:39:42;99141.88;;;8.62;70.81
40954;BME280;26686;50.130;8.710;2023-03-26T22:44:44;99147.56;;;8.47;71.20
40954;BME280;26686;50.130;8.710;2023-03-26T22:49:46;99150.19;;;8.38;71.96
40954;BME280;26686;50.130;8.710;2023-03-26T22:54:48;99175.03;;;8.37;72.18
40954;BME280;26686;50.130;8.710;2023-03-26T22:59:49;99186.06;;;8.42;72.40
40954;BME280;26686;50.130;8.710;2023-03-26T23:04:52;99204.19;;;8.37;72.45
40954;BME280;26686;50.130;8.710;2023-03-26T23:09:53;99218.41;;;8.36;72.43
40954;BME280;26686;50.130;8.710;2023-03-26T23:14:55;99217.47;;;8.37;72.82
40954;BME280;26686;50.130;8.710;2023-03-26T23:19:56;99238.41;;;8.40;72.86
40954;BME280;26686;50.130;8.710;2023-03-26T23:24:57;99243.56;;;8.41;73.24
40954;BME280;26686;50.130;8.710;2023-03-26T23:29:59;99271.31;;;8.37;73.12
40954;BME280;26686;50.130;8.710;2023-03-26T23:35:01;99296.19;;;8.36;74.30
40954;BME280;26686;50.130;8.710;2023-03-26T23:40:03;99291.00;;;8.13;73.06
40954;BME280;26686;50.130;8.710;2023-03-26T23:45:13;99310.03;;;8.19;72.25
40954;BME280;26686;50.130;8.710;2023-03-26T23:50:14;99318.00;;;8.19;72.42
40954;BME280;26686;50.130;8.710;2023-03-26T23:55:16;99340.56;;;7.92;72.39
